Terminal Aerodrome Forecast
Issued by NWS Portland, ME

Home | Current Version | Previous Version | Text Only | Print | Product List | Glossary On
Versions: 1 2 3 4 5 6 7 8 9 10 11 12 13 14 15 16 17 18 19 20
641
FTUS41 KGYX 251720
TAFPWM
TAF
KPWM 251720Z 2518/2618 11009KT 1/2SM RASN OVC003
     FM252000 13008KT 1/2SM RA OVC008
      TEMPO 2521/2524 2SM RASN
     FM260300 00000KT 1/2SM FG BKN003
     FM261100 30004KT P6SM FEW003=

USA.gov is the U.S. government's official web portal to all federal, state and local government web resources and services.